Flight Track Log - Related Links

Times and Time Zones

All times are in EDT time to prevent confusion due to time zone crossing. See the GLA65P flight status page for this flight to view local times or setup timezone preferences in your user account.

Time Position Orientation Groundspeed Altitude Reporting Facility
EDT Latitude Longitude Course Direction KTS MPH feet Rate Location/Type
Mon 05:09:34 PM 34.7131 -112.6403 267° West 175 201 14,000  Level Albuquerque Center
Mon 05:10:00 PM 34.7111 -112.8658 276° West  Level FlightAware
Mon 05:11:00 PM 34.7167 -112.9442 270° West  Level FlightAware
Mon 05:11:24 PM 34.7086 -112.7583 267° West 199 229 16,200  Level Los Center
Mon 05:12:00 PM 34.7167 -113.0230 270° West  Level FlightAware
Mon 05:12:39 PM 34.7150 -112.8519 275° West 199 229 17,700  Level Albuquerque Center
Mon 05:13:00 PM 34.7167 -113.1018 270° West  Level FlightAware
Mon 05:13:41 PM 34.7181 -112.9208 273° West 203 234 18,700  Level Albuquerque Center
Mon 05:14:43 PM 34.7197 -112.9883 272° West 202 232 20,000 581 Climbing Albuquerque Center
Mon 05:15:45 PM 34.7236 -113.0564 274° West 202 232 19,900 -48 Descending Albuquerque Center
Mon 05:16:47 PM 34.7247 -113.1328 271° West 219 252 19,900 48 Level Albuquerque Center
Mon 05:17:49 PM 34.7264 -113.2119 271° West 230 265 20,000  Climbing Albuquerque Center
Mon 05:18:50 PM 34.7322 -113.3036 274° West 229 264 19,900  Descending Albuquerque Center
Mon 05:19:52 PM 34.7361 -113.3797 274° West 227 261 20,000 48 Climbing Albuquerque Center
Mon 05:20:54 PM 34.7378 -113.4561 272° West 225 259 20,000 -48 Level Albuquerque Center
Mon 05:21:56 PM 34.7361 -113.5319 268° West 226 260 19,900  Descending Albuquerque Center
Mon 05:23:48 PM 34.7278 -113.6692 266° West 227 261 20,000 32 Climbing Los Center
Mon 05:25:01 PM 34.7267 -113.7608 269° West 226 260 20,000 -30 Level Albuquerque Center
Mon 05:27:06 PM 34.7367 -113.9294 274° West 229 264 19,900 -23 Descending Los Center
Mon 05:29:22 PM 34.7447 -114.0956 273° West 228 262 19,900  Level Los Center
Mon 05:30:25 PM 34.7483 -114.1878 273° West 228 262 19,900  Level Los Center
Mon 05:32:14 PM 34.7586 -114.3242 275° West 225 259 19,900  Level Albuquerque Center
Mon 05:33:16 PM 34.7606 -114.4006 272° West 226 260 19,900  Level Albuquerque Center
Mon 05:33:42 PM 34.7608 -114.4150 271° West 225 259 19,900  Level Los Center
Mon 05:34:45 PM 34.7669 -114.5050 275° West 222 255 19,900  Level Los Center
Mon 05:35:47 PM 34.7756 -114.5961 277° West 225 259 19,900  Level Los Center
Mon 05:36:49 PM 34.7764 -114.6722 271° West 225 259 19,900  Level Los Center
Mon 05:37:51 PM 34.7764 -114.7472 270° West 223 257 19,900 48 Level Los Center
Mon 05:38:53 PM 34.7758 -114.8244 270° West 226 260 20,000 48 Climbing Los Center
Mon 05:39:55 PM 34.7794 -114.8850 274° West 224 258 20,000 -48 Level Los Center
Mon 05:40:57 PM 34.7836 -114.9769 273° West 227 261 19,900 -48 Descending Los Center
Mon 05:41:59 PM 34.7850 -115.0564 271° West 231 266 19,900  Level Los Center
Mon 05:43:01 PM 34.7883 -115.1494 273° West 229 264 19,900 30 Level Los Center
Mon 05:45:17 PM 34.7908 -115.3028 271° West 228 262 20,000 30 Climbing Los Center
Mon 05:46:19 PM 34.7947 -115.3981 273° West 234 269 20,000 -48 Level Los Center
Mon 05:47:21 PM 34.7972 -115.4742 272° West 228 262 19,900 -32 Descending Los Center
Mon 05:49:25 PM 34.8025 -115.6378 272° West 225 259 19,900  Level Los Center
Mon 05:50:39 PM 34.8000 -115.7142 268° West 225 259 19,900 44 Level Los Center
Mon 05:51:41 PM 34.7989 -115.8058 269° West 226 260 20,000  Climbing Los Center
Mon 05:52:43 PM 34.7969 -115.8828 268° West 226 260 19,900  Descending Los Center
Mon 05:54:00 PM 34.7834 -115.9787 270° West  Level FlightAware
Mon 05:55:49 PM 34.7869 -116.1325 264° West 233 268 20,000  Level Los Center
Mon 05:57:00 PM 34.7860 -116.2210 269° West  Level FlightAware
Mon 05:57:53 PM 34.7939 -116.2897 269° West 234 269 19,900  Level Los Center
Mon 05:58:54 PM 34.7958 -116.3531 272° West 236 272 19,900  Level Los Center
Mon 06:00:58 PM 34.7900 -116.5269 268° West 234 269 19,900  Level Los Center
Mon 06:01:00 PM 34.7790 -116.5023 264° West  Level FlightAware
Mon 06:02:00 PM 34.7800 -116.6242 263° West 240 276 19,900  Level Los Center
Mon 06:03:02 PM 34.7731 -116.7031 264° West 238 274 19,900  Level Los Center
Mon 06:04:04 PM 34.7683 -116.7667 265° West 236 272 19,900  Level Los Center
Mon 06:06:08 PM 34.7592 -116.9439 266° West 240 276 19,900 -329 Level Los Center
Mon 06:08:00 PM 34.7300 -117.0821 263° West  Level FlightAware
Mon 06:09:14 PM 34.7289 -117.2042 263° West 248 285 18,200  Level Los Center
Mon 06:11:18 PM 34.6989 -117.3767 258° West 261 300 15,600 -1,181 Descending Los Center
Mon 06:13:00 PM 34.6799 -117.5812 262° West  Level FlightAware
Mon 06:14:24 PM 34.6631 -117.6344 262° West 259 298 12,100  Level Los Center
Mon 06:15:26 PM 34.6586 -117.7197 266° West 254 292 11,900 -218 Descending Los Center
Mon 06:17:00 PM 34.6447 -117.8361 263° West  Level FlightAware
Mon 06:18:32 PM 34.6361 -117.9975 263° West 261 300 11,200  Level Los Center
Mon 06:19:34 PM 34.6117 -118.0744 249° West 261 300 10,000 -1,210 Descending Los Center
Mon 06:20:36 PM 34.5789 -118.1408 239° Southwest 230 265 8,700 -783 Descending Los Center
Mon 06:22:15 PM 34.5167 -118.2500 235° Southwest 203 234 7,900 -387 Descending Southern TRACON
Mon 06:22:40 PM 34.5139 -118.2653 258° West 203 234 7,900  Level Los Center
Mon 06:23:42 PM 34.4808 -118.3189 233° Southwest 200 230 7,900  Level Los Center
Mon 06:24:56 PM 34.4225 -118.3550 207° Southwest 204 235 7,900 44 Level Los Center
Mon 06:25:59 PM 34.3603 -118.3639 187° South 201 231 8,000 96 Climbing Los Center
Mon 06:27:01 PM 34.3083 -118.3344 155° Southeast 209 241 8,100 -677 Climbing Los Center
Mon 06:30:00 PM 34.2040 -118.3020 158° South  Level FlightAware
Mon 06:31:18 PM 34.0833 -118.2667 158° South 197 227 4,400  Level Southern TRACON
Mon 06:33:18 PM 34.0167 -118.1833 134° Southeast 176 203 2,600 -425 Descending Southern TRACON
Mon 06:35:18 PM 33.9667 -118.2500 228° Southwest 145 167 2,700 -133 Climbing Southern TRACON
Mon 06:36:18 PM 33.9667 -118.3000 270° West 145 167 2,200 -600 Descending Southern TRACON
Mon 06:37:18 PM 33.9500 -118.3500 248° West 131 151 1,500 -768 Descending Southern TRACON
Mon 06:38:23 PM 33.9542 -118.3914 277° West 134 154 600 -831 Descending Los Center
Mon 06:40:00 PM 33.9333 -118.4000 228° Southwest  Level FlightAware
Mon 06:47:00 PM 33.9425 -118.4081 228° Southwest  Level Estimated
Mon 06:48:00 PM 33.9425 -118.4081 228° Southwest  Level Estimated
Mon 06:49:00 PM 33.9425 -118.4081 228° Southwest  Level Estimated
Mon 06:50:00 PM 33.9425 -118.4081 228° Southwest  Level Estimated
Mon 06:51:00 PM 33.9425 -118.4081 228° Southwest  Level Estimated
Mon 06:52:00 PM 33.9425 -118.4081 228° Southwest  Level Estimated

Login

Don't have an account? Register now (free) for customized features, flight alerts, and more!